Time;durP1;ratioP1;P1;durP2;ratioP2;P2;SDS_P1;SDS_P2;PMS_P1;PMS_P2;Temp;Humidity;BMP_temperature;BMP_pressure;BME280_temperature;BME280_humidity;BME280_pressure;Samples;Min_cycle;Max_cycle;Signal;HPM_P1;HPM_P2
2022/06/17 00:00:40;;;;;;;;;;;15.60;99.90;;;;;;4590020;19;19934;-33
2022/06/17 00:02:11;;;;;;;;;;;15.50;99.90;;;;;;4591007;19;19915;-32
2022/06/17 00:03:42;;;;;;;;;;;15.50;99.90;;;;;;4591474;19;19911;-34
2022/06/17 00:05:13;;;;;;;;;;;15.50;99.90;;;;;;4590182;19;19918;-33
2022/06/17 00:06:48;;;;;;;;;;;15.50;99.90;;;;;;4591046;19;19989;-35
2022/06/17 00:08:22;;;;;;;;;;;15.50;99.90;;;;;;4591391;19;20371;-35
2022/06/17 00:09:53;;;;;;;;;;;15.50;99.90;;;;;;4590931;19;19911;-32
2022/06/17 00:11:28;;;;;;;;;;;15.50;99.90;;;;;;4591029;19;19918;-32
2022/06/17 00:12:59;;;;;;;;;;;15.50;99.90;;;;;;4589991;19;20028;-32
2022/06/17 00:14:33;;;;;;;;;;;15.50;99.90;;;;;;4589983;19;19983;-34
2022/06/17 00:16:04;;;;;;;;;;;15.50;99.90;;;;;;4590242;19;19923;-35
2022/06/17 00:17:35;;;;;;;;;;;15.40;99.90;;;;;;4590184;19;19946;-35
2022/06/17 00:19:07;;;;;;;;;;;15.40;99.90;;;;;;4591078;19;19982;-35
2022/06/17 00:20:38;;;;;;;;;;;15.40;99.90;;;;;;4591597;19;20116;-35
2022/06/17 00:22:09;;;;;;;;;;;15.40;99.90;;;;;;4589626;19;20254;-33
2022/06/17 00:23:40;;;;;;;;;;;15.40;99.90;;;;;;4591685;19;19971;-33
2022/06/17 00:25:22;;;;;;;;;;;15.40;99.90;;;;;;4595706;19;19928;-34
2022/06/17 00:26:56;;;;;;;;;;;15.40;99.90;;;;;;4596150;19;19911;-32
2022/06/17 00:28:28;;;;;;;;;;;15.40;99.90;;;;;;4595565;19;19927;-35
2022/06/17 00:29:59;;;;;;;;;;;15.40;99.90;;;;;;4594635;19;19919;-34
2022/06/17 00:31:30;;;;;;;;;;;15.40;99.90;;;;;;4594636;19;19955;-32
2022/06/17 00:33:02;;;;;;;;;;;15.30;99.90;;;;;;4596064;19;19918;-36
2022/06/17 00:34:33;;;;;;;;;;;15.30;99.90;;;;;;4595315;19;19952;-31
2022/06/17 00:36:05;;;;;;;;;;;15.30;99.90;;;;;;4595400;19;19918;-31
2022/06/17 00:37:36;;;;;;;;;;;15.30;99.90;;;;;;4592743;19;19907;-33
2022/06/17 00:39:14;;;;;;;;;;;15.30;99.90;;;;;;4595027;19;19932;-39
2022/06/17 00:40:46;;;;;;;;;;;15.30;99.90;;;;;;4595254;19;19919;-33
2022/06/17 00:42:19;;;;;;;;;;;15.30;99.90;;;;;;4595856;19;19915;-31
2022/06/17 00:43:50;;;;;;;;;;;15.30;99.90;;;;;;4595379;19;20326;-33
2022/06/17 00:45:25;;;;;;;;;;;15.30;99.90;;;;;;4595171;19;19911;-38
2022/06/17 00:47:08;;;;;;;;;;;15.30;99.90;;;;;;4595059;19;19915;-35
2022/06/17 00:48:39;;;;;;;;;;;15.20;99.90;;;;;;4592960;19;19978;-32
2022/06/17 00:50:16;;;;;;;;;;;15.20;99.90;;;;;;4592445;19;19926;-31
2022/06/17 00:51:53;;;;;;;;;;;15.20;99.90;;;;;;4593078;19;19919;-33
2022/06/17 00:53:25;;;;;;;;;;;15.20;99.90;;;;;;4592857;19;19998;-33
2022/06/17 00:54:59;;;;;;;;;;;15.20;99.90;;;;;;4591229;19;19918;-40
2022/06/17 00:56:31;;;;;;;;;;;15.20;99.90;;;;;;4592828;19;19926;-36
2022/06/17 00:58:06;;;;;;;;;;;15.20;99.90;;;;;;4593222;19;20338;-32
2022/06/17 00:59:37;;;;;;;;;;;15.10;99.90;;;;;;4592805;19;19915;-35
2022/06/17 01:01:08;;;;;;;;;;;15.20;99.90;;;;;;4592766;19;20313;-40
2022/06/17 01:03:00;;;;;;;;;;;15.10;99.90;;;;;;4592621;19;20324;-33
2022/06/17 01:04:43;;;;;;;;;;;15.10;99.90;;;;;;4592472;19;20369;-34
2022/06/17 01:06:15;;;;;;;;;;;15.10;99.90;;;;;;4592909;19;19911;-33
2022/06/17 01:07:48;;;;;;;;;;;15.10;99.90;;;;;;4592745;19;19914;-32
2022/06/17 01:11:11;;;;;;;;;;;15.10;99.90;;;;;;4592951;19;20324;-31
2022/06/17 01:12:44;;;;;;;;;;;15.10;99.90;;;;;;4593038;19;19929;-35
2022/06/17 01:14:15;;;;;;;;;;;15.10;99.90;;;;;;4592407;19;19926;-35
2022/06/17 01:15:46;;;;;;;;;;;15.10;99.90;;;;;;4592593;19;19959;-34
2022/06/17 01:17:18;;;;;;;;;;;15.00;99.90;;;;;;4591202;19;19926;-34
2022/06/17 01:18:49;;;;;;;;;;;15.00;99.90;;;;;;4592687;19;20369;-32
2022/06/17 01:20:20;;;;;;;;;;;15.00;99.90;;;;;;4593891;19;19923;-34
2022/06/17 01:22:02;;;;;;;;;;;15.00;99.90;;;;;;4594827;19;19911;-35
2022/06/17 01:23:33;;;;;;;;;;;15.00;99.90;;;;;;4593553;19;19951;-34
2022/06/17 01:25:17;;;;;;;;;;;15.00;99.90;;;;;;4594211;19;19970;-36
2022/06/17 01:26:49;;;;;;;;;;;15.00;99.90;;;;;;4594307;19;19982;-33
2022/06/17 01:28:20;;;;;;;;;;;15.00;99.90;;;;;;4594363;19;19918;-36
2022/06/17 01:29:51;;;;;;;;;;;15.00;99.90;;;;;;4594830;19;19915;-34
2022/06/17 01:31:22;;;;;;;;;;;15.00;99.90;;;;;;4593962;19;20331;-35
2022/06/17 01:32:54;;;;;;;;;;;14.90;99.90;;;;;;4593996;19;19939;-33
2022/06/17 01:34:25;;;;;;;;;;;14.90;99.90;;;;;;4593017;19;19915;-35
2022/06/17 01:35:56;;;;;;;;;;;14.90;99.90;;;;;;4592099;19;19929;-36
2022/06/17 01:37:28;;;;;;;;;;;14.90;99.90;;;;;;4593840;19;19919;-32
2022/06/17 01:38:59;;;;;;;;;;;14.90;99.90;;;;;;4594051;19;20267;-35
2022/06/17 01:40:30;;;;;;;;;;;14.90;99.90;;;;;;4592937;19;19925;-32
2022/06/17 01:42:01;;;;;;;;;;;14.80;99.90;;;;;;4593327;19;19915;-38
2022/06/17 01:43:43;;;;;;;;;;;14.80;99.90;;;;;;4593416;19;19974;-34
2022/06/17 01:45:14;;;;;;;;;;;14.80;99.90;;;;;;4594107;19;19918;-36
2022/06/17 01:46:46;;;;;;;;;;;14.80;99.90;;;;;;4594494;19;19919;-32
2022/06/17 01:48:17;;;;;;;;;;;14.80;99.90;;;;;;4594676;19;19915;-32
2022/06/17 01:49:53;;;;;;;;;;;14.80;99.90;;;;;;4592107;19;19957;-33
2022/06/17 01:51:24;;;;;;;;;;;14.80;99.90;;;;;;4593009;19;20311;-33
2022/06/17 01:52:58;;;;;;;;;;;14.70;99.90;;;;;;4593641;19;19923;-33
2022/06/17 01:54:39;;;;;;;;;;;14.70;99.90;;;;;;4592339;19;19915;-32
2022/06/17 01:56:12;;;;;;;;;;;14.70;99.90;;;;;;4592433;19;19910;-32
2022/06/17 01:57:44;;;;;;;;;;;14.70;99.90;;;;;;4591077;19;20377;-31
2022/06/17 01:59:17;;;;;;;;;;;14.70;99.90;;;;;;4592920;19;19929;-33
2022/06/17 02:00:48;;;;;;;;;;;14.60;99.90;;;;;;4592998;19;19923;-35
2022/06/17 02:02:19;;;;;;;;;;;14.70;99.90;;;;;;4592332;19;19907;-33
2022/06/17 02:03:52;;;;;;;;;;;14.70;99.90;;;;;;4592454;19;19975;-35
2022/06/17 02:05:23;;;;;;;;;;;14.70;99.90;;;;;;4593541;19;20346;-33
2022/06/17 02:07:14;;;;;;;;;;;14.60;99.90;;;;;;4593233;19;20003;-33
2022/06/17 02:08:45;;;;;;;;;;;14.60;99.90;;;;;;4591220;19;19915;-35
2022/06/17 02:10:17;;;;;;;;;;;14.60;99.90;;;;;;4591171;19;20342;-32
2022/06/17 02:11:47;;;;;;;;;;;14.60;99.90;;;;;;4591592;19;19919;-33
2022/06/17 02:13:18;;;;;;;;;;;14.50;99.90;;;;;;4591240;19;19936;-36
2022/06/17 02:14:49;;;;;;;;;;;14.50;99.90;;;;;;4591056;19;19915;-34
2022/06/17 02:16:20;;;;;;;;;;;14.50;99.90;;;;;;4591238;19;19959;-34
2022/06/17 02:17:51;;;;;;;;;;;14.40;99.90;;;;;;4591549;19;19915;-33
2022/06/17 02:19:23;;;;;;;;;;;14.40;99.90;;;;;;4591536;19;19957;-31
2022/06/17 02:20:55;;;;;;;;;;;14.40;99.90;;;;;;4590975;19;19919;-35
2022/06/17 02:22:29;;;;;;;;;;;14.40;99.90;;;;;;4591274;19;19936;-33
2022/06/17 02:24:00;;;;;;;;;;;14.40;99.90;;;;;;4591369;19;20317;-32
2022/06/17 02:25:34;;;;;;;;;;;14.40;99.90;;;;;;4591445;19;20004;-32
2022/06/17 02:27:05;;;;;;;;;;;14.40;99.90;;;;;;4590859;19;19919;-33
2022/06/17 02:28:37;;;;;;;;;;;14.30;99.90;;;;;;4591064;19;19926;-35
2022/06/17 02:30:08;;;;;;;;;;;14.30;99.90;;;;;;4591318;19;19919;-32
2022/06/17 02:31:39;;;;;;;;;;;14.30;99.90;;;;;;4590747;19;19917;-37
2022/06/17 02:33:10;;;;;;;;;;;14.40;99.90;;;;;;4590880;19;19936;-36
2022/06/17 02:34:49;;;;;;;;;;;14.30;99.90;;;;;;4590946;19;19996;-32
2022/06/17 02:36:31;;;;;;;;;;;14.30;99.90;;;;;;4591192;19;19915;-32
2022/06/17 02:38:02;;;;;;;;;;;14.30;99.90;;;;;;4591066;19;19913;-35
2022/06/17 02:39:34;;;;;;;;;;;14.30;99.90;;;;;;4590689;19;19967;-32
2022/06/17 02:41:06;;;;;;;;;;;14.30;99.90;;;;;;4590575;19;19925;-32
2022/06/17 02:42:37;;;;;;;;;;;14.30;99.90;;;;;;4591376;19;20290;-33
2022/06/17 02:44:17;;;;;;;;;;;14.30;99.90;;;;;;4590694;19;19935;-33
2022/06/17 02:45:51;;;;;;;;;;;14.30;99.90;;;;;;4590711;19;19921;-32
2022/06/17 02:47:23;;;;;;;;;;;14.30;99.90;;;;;;4591519;19;19989;-34
2022/06/17 02:48:54;;;;;;;;;;;14.30;99.90;;;;;;4590306;19;19925;-33
2022/06/17 02:50:26;;;;;;;;;;;14.30;99.90;;;;;;4590472;19;19934;-33
2022/06/17 02:51:57;;;;;;;;;;;14.30;99.90;;;;;;4591351;19;19923;-34
2022/06/17 02:53:31;;;;;;;;;;;14.20;99.90;;;;;;4591727;19;19919;-36
2022/06/17 02:55:07;;;;;;;;;;;14.30;99.90;;;;;;4590697;19;19935;-33
2022/06/17 02:56:38;;;;;;;;;;;14.30;99.90;;;;;;4591159;19;20238;-35
2022/06/17 02:58:16;;;;;;;;;;;14.30;99.90;;;;;;4591880;19;19914;-34
2022/06/17 02:59:50;;;;;;;;;;;14.30;99.90;;;;;;4591528;19;19989;-31
2022/06/17 03:01:22;;;;;;;;;;;14.30;99.90;;;;;;4591329;19;19914;-34
2022/06/17 03:02:54;;;;;;;;;;;14.30;99.90;;;;;;4592117;19;19948;-36
2022/06/17 03:04:26;;;;;;;;;;;14.30;99.90;;;;;;4592554;19;19918;-34
2022/06/17 03:05:57;;;;;;;;;;;14.30;99.90;;;;;;4591249;19;19914;-35
2022/06/17 03:07:29;;;;;;;;;;;14.20;99.90;;;;;;4592028;19;20250;-35
2022/06/17 03:09:01;;;;;;;;;;;14.30;99.90;;;;;;4592172;19;19923;-33
2022/06/17 03:10:33;;;;;;;;;;;14.30;99.90;;;;;;4592259;19;20279;-33
2022/06/17 03:12:12;;;;;;;;;;;14.30;99.90;;;;;;4590990;19;19982;-32
2022/06/17 03:13:57;;;;;;;;;;;14.30;99.90;;;;;;4592604;19;19987;-32
2022/06/17 03:15:28;;;;;;;;;;;14.30;99.90;;;;;;4592775;19;19982;-32
2022/06/17 03:17:00;;;;;;;;;;;14.30;99.90;;;;;;4591514;19;19918;-34
2022/06/17 03:18:31;;;;;;;;;;;14.30;99.90;;;;;;4592427;19;19923;-34
2022/06/17 03:20:02;;;;;;;;;;;14.30;99.90;;;;;;4592748;19;19918;-36
2022/06/17 03:21:33;;;;;;;;;;;14.30;99.90;;;;;;4591921;19;19915;-32
2022/06/17 03:23:15;;;;;;;;;;;14.30;99.90;;;;;;4592041;19;19915;-32
2022/06/17 03:24:49;;;;;;;;;;;14.30;99.90;;;;;;4591369;19;19936;-35
2022/06/17 03:26:22;;;;;;;;;;;14.30;99.90;;;;;;4591574;19;19915;-39
2022/06/17 03:27:54;;;;;;;;;;;14.30;99.90;;;;;;4591974;19;19922;-31
2022/06/17 03:29:25;;;;;;;;;;;14.30;99.90;;;;;;4590913;19;19914;-32
2022/06/17 03:31:15;;;;;;;;;;;14.40;99.90;;;;;;4591773;19;19925;-33
2022/06/17 03:32:47;;;;;;;;;;;14.30;99.90;;;;;;4591932;19;19927;-31
2022/06/17 03:34:20;;;;;;;;;;;14.40;99.90;;;;;;4591200;19;20372;-34
2022/06/17 03:35:52;;;;;;;;;;;14.40;99.90;;;;;;4590719;19;19915;-36
2022/06/17 03:37:23;;;;;;;;;;;14.40;99.90;;;;;;4590856;19;19931;-35
2022/06/17 03:38:58;;;;;;;;;;;14.40;99.90;;;;;;4591846;19;19915;-36
2022/06/17 03:40:31;;;;;;;;;;;14.40;99.90;;;;;;4591014;19;19992;-34
2022/06/17 03:42:05;;;;;;;;;;;14.40;99.90;;;;;;4590658;19;19978;-33
2022/06/17 03:43:38;;;;;;;;;;;14.40;99.90;;;;;;4590700;19;19923;-36
2022/06/17 03:45:14;;;;;;;;;;;14.40;99.90;;;;;;4591220;19;19926;-36
2022/06/17 03:46:51;;;;;;;;;;;14.40;99.90;;;;;;4591075;19;19952;-34
2022/06/17 03:48:42;;;;;;;;;;;14.50;99.90;;;;;;4590217;19;20258;-33
2022/06/17 03:50:25;;;;;;;;;;;14.50;99.90;;;;;;4590575;19;20377;-32
2022/06/17 03:52:00;;;;;;;;;;;14.50;99.90;;;;;;4590633;19;19938;-36
2022/06/17 03:53:32;;;;;;;;;;;14.50;99.90;;;;;;4591473;19;19915;-33
2022/06/17 03:55:03;;;;;;;;;;;14.50;99.90;;;;;;4590614;19;20336;-33
2022/06/17 03:56:35;;;;;;;;;;;14.50;99.90;;;;;;4591313;19;19982;-33
2022/06/17 03:58:06;;;;;;;;;;;14.60;99.90;;;;;;4590826;19;20360;-35
2022/06/17 03:59:37;;;;;;;;;;;14.60;99.90;;;;;;4591300;19;19922;-31
2022/06/17 04:01:12;;;;;;;;;;;14.60;99.90;;;;;;4590105;19;19926;-31
2022/06/17 04:02:44;;;;;;;;;;;14.60;99.90;;;;;;4590300;19;20377;-32
2022/06/17 04:04:17;;;;;;;;;;;14.60;99.90;;;;;;4590410;19;19943;-36
2022/06/17 04:05:49;;;;;;;;;;;14.70;99.90;;;;;;4591279;19;19911;-35
2022/06/17 04:07:20;;;;;;;;;;;14.70;99.90;;;;;;4589818;19;20276;-33
2022/06/17 04:08:56;;;;;;;;;;;14.70;99.90;;;;;;4590704;19;19919;-37
2022/06/17 04:10:28;;;;;;;;;;;14.70;99.90;;;;;;4591646;19;19911;-34
2022/06/17 04:11:59;;;;;;;;;;;14.70;99.90;;;;;;4590194;19;20307;-33
2022/06/17 04:13:30;;;;;;;;;;;14.70;99.90;;;;;;4589775;19;19919;-33
2022/06/17 04:15:05;;;;;;;;;;;14.80;99.90;;;;;;4589858;19;19982;-34
2022/06/17 04:16:50;;;;;;;;;;;14.80;99.90;;;;;;4590799;19;19911;-34
2022/06/17 04:18:21;;;;;;;;;;;14.80;99.90;;;;;;4590391;19;19919;-36
2022/06/17 04:19:57;;;;;;;;;;;14.80;99.90;;;;;;4590403;19;19925;-33
2022/06/17 04:21:28;;;;;;;;;;;14.90;99.90;;;;;;4590164;19;19907;-32
2022/06/17 04:23:05;;;;;;;;;;;14.90;99.90;;;;;;4590820;19;19918;-33
2022/06/17 04:24:36;;;;;;;;;;;14.90;99.90;;;;;;4589797;19;20293;-37
2022/06/17 04:26:21;;;;;;;;;;;14.90;99.90;;;;;;4590344;19;19915;-35
2022/06/17 04:27:59;;;;;;;;;;;14.90;99.90;;;;;;4590718;19;19932;-36
2022/06/17 04:29:33;;;;;;;;;;;14.90;99.90;;;;;;4589572;19;19967;-32
2022/06/17 04:31:06;;;;;;;;;;;14.90;99.90;;;;;;4590818;19;19915;-34
2022/06/17 04:32:39;;;;;;;;;;;15.00;99.90;;;;;;4590984;19;19915;-36
2022/06/17 04:34:13;;;;;;;;;;;15.00;99.90;;;;;;4590793;19;19925;-35
2022/06/17 04:35:44;;;;;;;;;;;15.00;99.90;;;;;;4592819;19;19939;-35
2022/06/17 04:37:21;;;;;;;;;;;15.00;99.90;;;;;;4588693;19;19966;-32
2022/06/17 04:38:53;;;;;;;;;;;15.00;99.90;;;;;;4590631;19;19917;-34
2022/06/17 04:40:42;;;;;;;;;;;15.10;99.90;;;;;;4589025;19;19930;-30
2022/06/17 04:42:20;;;;;;;;;;;15.10;99.90;;;;;;4589443;19;19922;-32
2022/06/17 04:43:52;;;;;;;;;;;15.10;99.90;;;;;;4591168;19;19915;-34
2022/06/17 04:45:24;;;;;;;;;;;15.10;99.90;;;;;;4588334;19;19923;-33
2022/06/17 04:46:58;;;;;;;;;;;15.20;99.90;;;;;;4590796;19;19922;-35
2022/06/17 04:48:29;;;;;;;;;;;15.20;99.90;;;;;;4590636;19;19918;-35
2022/06/17 04:50:02;;;;;;;;;;;15.20;99.90;;;;;;4590472;19;20919;-32
2022/06/17 04:51:33;;;;;;;;;;;15.20;99.90;;;;;;4588452;19;20374;-33
2022/06/17 04:53:04;;;;;;;;;;;15.30;99.90;;;;;;4587733;19;19967;-37
2022/06/17 04:54:36;;;;;;;;;;;15.20;99.90;;;;;;4589114;19;19918;-33
2022/06/17 04:56:08;;;;;;;;;;;15.30;99.90;;;;;;4588341;19;19926;-31
2022/06/17 04:57:39;;;;;;;;;;;15.30;99.90;;;;;;4588897;19;19940;-32
2022/06/17 04:59:17;;;;;;;;;;;15.30;99.90;;;;;;4587037;19;20341;-32
2022/06/17 05:00:50;;;;;;;;;;;15.30;99.90;;;;;;4590125;19;19994;-36
2022/06/17 05:02:22;;;;;;;;;;;15.30;99.90;;;;;;4588343;19;19964;-32
2022/06/17 05:03:53;;;;;;;;;;;15.40;99.90;;;;;;4589596;19;20003;-32
2022/06/17 05:05:27;;;;;;;;;;;15.40;99.90;;;;;;4589703;19;19985;-31
2022/06/17 05:06:58;;;;;;;;;;;15.40;99.90;;;;;;4589351;19;20494;-33
2022/06/17 05:08:30;;;;;;;;;;;15.50;99.90;;;;;;4590597;19;19919;-37
2022/06/17 05:10:02;;;;;;;;;;;15.50;99.90;;;;;;4593093;19;19915;-32
2022/06/17 05:11:35;;;;;;;;;;;15.50;99.90;;;;;;4593407;19;19922;-37
2022/06/17 05:13:12;;;;;;;;;;;15.50;99.90;;;;;;4591675;19;19936;-35
2022/06/17 05:14:53;;;;;;;;;;;15.60;99.90;;;;;;4595064;19;19923;-36
2022/06/17 05:16:24;;;;;;;;;;;15.60;99.90;;;;;;4593719;19;19919;-34
2022/06/17 05:17:56;;;;;;;;;;;15.60;99.90;;;;;;4593711;19;20002;-33
2022/06/17 05:19:27;;;;;;;;;;;15.60;99.90;;;;;;4594021;19;19918;-34
2022/06/17 05:20:58;;;;;;;;;;;15.70;99.90;;;;;;4593675;19;20369;-34
2022/06/17 05:22:31;;;;;;;;;;;15.70;99.90;;;;;;4595147;19;19919;-33
2022/06/17 05:24:02;;;;;;;;;;;15.70;99.90;;;;;;4593674;19;19919;-38
2022/06/17 05:25:37;;;;;;;;;;;15.70;99.90;;;;;;4593335;19;19915;-36
2022/06/17 05:27:09;;;;;;;;;;;15.70;99.90;;;;;;4595231;19;20448;-34
2022/06/17 05:28:40;;;;;;;;;;;15.80;99.90;;;;;;4593555;19;19929;-32
2022/06/17 05:30:11;;;;;;;;;;;15.80;99.90;;;;;;4593891;19;19919;-34
2022/06/17 05:31:43;;;;;;;;;;;15.80;99.90;;;;;;4594296;19;19922;-33
2022/06/17 05:33:14;;;;;;;;;;;15.80;99.90;;;;;;4595647;19;19923;-34
2022/06/17 05:34:46;;;;;;;;;;;15.80;99.90;;;;;;4594023;19;19929;-35
2022/06/17 05:36:17;;;;;;;;;;;15.80;99.90;;;;;;4591993;19;19978;-36
2022/06/17 05:37:48;;;;;;;;;;;15.80;99.90;;;;;;4592354;19;20570;-35
2022/06/17 05:39:19;;;;;;;;;;;15.80;99.90;;;;;;4594652;19;20258;-35
2022/06/17 05:40:50;;;;;;;;;;;15.90;99.90;;;;;;4593828;19;19925;-32
2022/06/17 05:42:21;;;;;;;;;;;15.90;99.90;;;;;;4594232;19;20374;-33
2022/06/17 05:43:52;;;;;;;;;;;15.90;99.90;;;;;;4594164;19;19926;-34
2022/06/17 05:45:23;;;;;;;;;;;15.90;99.90;;;;;;4591925;19;19919;-32
2022/06/17 05:46:54;;;;;;;;;;;15.90;99.90;;;;;;4594624;19;19914;-33
2022/06/17 05:48:25;;;;;;;;;;;15.90;99.90;;;;;;4592914;19;20246;-33
2022/06/17 05:49:56;;;;;;;;;;;16.00;99.90;;;;;;4594363;19;19926;-34
2022/06/17 05:51:27;;;;;;;;;;;16.00;99.90;;;;;;4593604;19;20234;-39
2022/06/17 05:52:59;;;;;;;;;;;16.00;99.90;;;;;;4594262;19;19915;-33
2022/06/17 05:54:30;;;;;;;;;;;16.00;99.90;;;;;;4592139;19;19923;-32
2022/06/17 05:56:01;;;;;;;;;;;15.90;99.90;;;;;;4593627;19;20333;-33
2022/06/17 05:57:32;;;;;;;;;;;16.00;99.90;;;;;;4593146;19;19914;-34
2022/06/17 05:59:03;;;;;;;;;;;16.00;99.90;;;;;;4592451;19;19919;-33
2022/06/17 06:00:35;;;;;;;;;;;16.10;99.90;;;;;;4593587;19;20271;-34
2022/06/17 06:02:06;;;;;;;;;;;16.10;99.90;;;;;;4593532;19;19918;-33
2022/06/17 06:03:37;;;;;;;;;;;16.10;99.90;;;;;;4592198;19;19919;-36
2022/06/17 06:05:10;;;;;;;;;;;16.10;99.90;;;;;;4593854;19;19930;-32
2022/06/17 06:06:41;;;;;;;;;;;16.10;99.90;;;;;;4592904;19;19986;-33
2022/06/17 06:08:12;;;;;;;;;;;16.10;99.90;;;;;;4593723;19;20269;-36
2022/06/17 06:09:43;;;;;;;;;;;16.10;99.90;;;;;;4593328;19;19915;-37
2022/06/17 06:11:14;;;;;;;;;;;16.10;99.90;;;;;;4592919;19;20030;-31
2022/06/17 06:12:57;;;;;;;;;;;16.20;99.90;;;;;;4592178;19;19919;-32
2022/06/17 06:14:28;;;;;;;;;;;16.20;99.90;;;;;;4592460;19;19918;-32
2022/06/17 06:15:59;;;;;;;;;;;16.20;99.90;;;;;;4592506;19;20242;-33
2022/06/17 06:17:30;;;;;;;;;;;16.20;99.90;;;;;;4592161;19;19925;-35
2022/06/17 06:19:01;;;;;;;;;;;16.30;99.90;;;;;;4592597;19;19932;-34
2022/06/17 06:20:32;;;;;;;;;;;16.30;99.90;;;;;;4594269;19;19919;-34
2022/06/17 06:22:03;;;;;;;;;;;16.30;99.90;;;;;;4591575;19;19926;-33
2022/06/17 06:23:34;;;;;;;;;;;16.40;99.90;;;;;;4592833;19;19967;-32
2022/06/17 06:25:06;;;;;;;;;;;16.40;99.90;;;;;;4591687;19;20343;-33
2022/06/17 06:26:37;;;;;;;;;;;16.40;99.90;;;;;;4591811;19;19930;-32
2022/06/17 06:28:22;;;;;;;;;;;16.40;99.90;;;;;;4593389;19;19922;-34
2022/06/17 06:29:53;;;;;;;;;;;16.40;99.90;;;;;;4592551;19;20349;-34
2022/06/17 06:31:31;;;;;;;;;;;16.40;99.90;;;;;;4591964;19;19911;-34
2022/06/17 06:33:02;;;;;;;;;;;16.40;99.90;;;;;;4593553;19;19922;-33
2022/06/17 06:34:33;;;;;;;;;;;16.50;99.90;;;;;;4592370;19;19939;-35
2022/06/17 06:36:04;;;;;;;;;;;16.50;99.90;;;;;;4592941;19;20281;-35
2022/06/17 06:37:35;;;;;;;;;;;16.50;99.90;;;;;;4592700;19;20359;-34
2022/06/17 06:39:06;;;;;;;;;;;16.50;99.90;;;;;;4591435;19;19919;-35
2022/06/17 06:40:37;;;;;;;;;;;16.50;99.90;;;;;;4592287;19;20334;-33
2022/06/17 06:42:08;;;;;;;;;;;16.50;99.90;;;;;;4593403;19;19919;-33
2022/06/17 06:43:40;;;;;;;;;;;16.50;99.90;;;;;;4591997;19;19919;-34
2022/06/17 06:45:13;;;;;;;;;;;16.50;99.90;;;;;;4593472;19;20261;-32
2022/06/17 06:46:44;;;;;;;;;;;16.60;99.90;;;;;;4592641;19;19930;-35
2022/06/17 06:48:15;;;;;;;;;;;16.60;99.90;;;;;;4592286;19;19944;-31
2022/06/17 06:49:46;;;;;;;;;;;16.60;99.90;;;;;;4593042;19;20259;-32
2022/06/17 06:51:19;;;;;;;;;;;16.70;99.90;;;;;;4592393;19;19919;-34
2022/06/17 06:52:50;;;;;;;;;;;16.60;99.90;;;;;;4592572;19;19939;-34
2022/06/17 06:54:21;;;;;;;;;;;16.70;99.90;;;;;;4591847;19;20333;-35
2022/06/17 06:55:52;;;;;;;;;;;16.70;99.90;;;;;;4591931;19;19943;-32
2022/06/17 06:57:23;;;;;;;;;;;16.70;99.90;;;;;;4591793;19;19923;-38
2022/06/17 06:58:54;;;;;;;;;;;16.80;99.90;;;;;;4591320;19;19935;-33
2022/06/17 07:00:29;;;;;;;;;;;16.80;99.90;;;;;;4590796;19;19960;-34
2022/06/17 07:02:01;;;;;;;;;;;16.90;99.90;;;;;;4590468;19;20257;-32
2022/06/17 07:03:32;;;;;;;;;;;16.90;99.90;;;;;;4591952;19;19919;-35
2022/06/17 07:05:03;;;;;;;;;;;16.90;99.90;;;;;;4592444;19;19915;-34
2022/06/17 07:06:34;;;;;;;;;;;16.90;99.90;;;;;;4592853;19;19926;-32
2022/06/17 07:08:06;;;;;;;;;;;16.90;99.90;;;;;;4592167;19;19918;-31
2022/06/17 07:09:36;;;;;;;;;;;17.00;99.90;;;;;;4592330;19;20345;-34
2022/06/17 07:11:07;;;;;;;;;;;17.00;99.90;;;;;;4592171;19;19923;-32
2022/06/17 07:12:38;;;;;;;;;;;17.10;99.90;;;;;;4591504;19;20274;-32
2022/06/17 07:14:10;;;;;;;;;;;17.10;99.90;;;;;;4590842;19;20230;-33
2022/06/17 07:15:42;;;;;;;;;;;17.20;99.90;;;;;;4592232;19;19918;-33
2022/06/17 07:17:14;;;;;;;;;;;17.10;99.90;;;;;;4590238;19;20279;-31
2022/06/17 07:18:45;;;;;;;;;;;17.10;99.90;;;;;;4591279;19;19922;-32
2022/06/17 07:20:17;;;;;;;;;;;17.10;99.90;;;;;;4591865;19;19915;-32
2022/06/17 07:21:51;;;;;;;;;;;17.10;99.90;;;;;;4591654;19;19956;-33
2022/06/17 07:23:23;;;;;;;;;;;17.10;99.90;;;;;;4591573;19;20274;-35
2022/06/17 07:24:54;;;;;;;;;;;17.10;99.90;;;;;;4590933;19;19938;-34
2022/06/17 07:26:26;;;;;;;;;;;17.10;99.90;;;;;;4591781;19;19918;-35
2022/06/17 07:27:57;;;;;;;;;;;17.10;99.90;;;;;;4592795;19;19947;-32
2022/06/17 07:29:28;;;;;;;;;;;17.10;99.90;;;;;;4591636;19;19930;-32
2022/06/17 07:30:59;;;;;;;;;;;17.10;99.90;;;;;;4590544;19;19911;-32
2022/06/17 07:32:30;;;;;;;;;;;17.10;99.90;;;;;;4592694;19;19922;-34
2022/06/17 07:34:01;;;;;;;;;;;17.20;99.90;;;;;;4588587;19;19922;-33
2022/06/17 07:35:33;;;;;;;;;;;17.20;99.90;;;;;;4592306;19;19946;-32
2022/06/17 07:41:03;;;;;;;;;;;17.20;99.90;;;;;;4588783;19;20475;-36
2022/06/17 07:42:37;;;;;;;;;;;17.20;99.90;;;;;;4590593;19;19965;-32
2022/06/17 07:44:08;;;;;;;;;;;17.30;99.90;;;;;;4590183;19;20016;-35
2022/06/17 07:45:39;;;;;;;;;;;17.40;99.90;;;;;;4589395;19;19930;-37
2022/06/17 07:47:14;;;;;;;;;;;17.40;99.90;;;;;;4590017;19;19925;-34
2022/06/17 07:48:46;;;;;;;;;;;17.50;99.90;;;;;;4589803;19;19919;-32
2022/06/17 07:50:25;;;;;;;;;;;17.50;99.90;;;;;;4588985;19;19929;-31
2022/06/17 07:51:56;;;;;;;;;;;17.50;99.90;;;;;;4589151;19;19948;-33
2022/06/17 07:53:28;;;;;;;;;;;17.40;99.90;;;;;;4588177;19;20337;-31
2022/06/17 07:54:59;;;;;;;;;;;17.40;99.90;;;;;;4589521;19;19927;-31
2022/06/17 07:56:30;;;;;;;;;;;17.40;99.90;;;;;;4589283;19;19926;-33
2022/06/17 07:58:01;;;;;;;;;;;17.50;99.90;;;;;;4588466;19;19907;-30
2022/06/17 07:59:32;;;;;;;;;;;17.60;99.90;;;;;;4589112;19;19922;-31
2022/06/17 08:01:03;;;;;;;;;;;17.50;99.90;;;;;;4589724;19;20373;-32
2022/06/17 08:02:35;;;;;;;;;;;17.60;99.90;;;;;;4588635;19;19992;-32
2022/06/17 08:04:05;;;;;;;;;;;17.60;99.90;;;;;;4587884;19;20334;-32
2022/06/17 08:05:40;;;;;;;;;;;17.60;99.90;;;;;;4590016;19;20249;-32
2022/06/17 08:07:11;;;;;;;;;;;17.60;99.90;;;;;;4588236;19;19994;-34
2022/06/17 08:08:43;;;;;;;;;;;17.70;99.90;;;;;;4589929;19;20771;-32
2022/06/17 08:10:18;;;;;;;;;;;17.70;99.90;;;;;;4589968;19;20349;-32
2022/06/17 08:11:49;;;;;;;;;;;17.70;99.90;;;;;;4589309;19;19965;-36
2022/06/17 08:13:21;;;;;;;;;;;17.70;99.90;;;;;;4590265;19;19915;-34
2022/06/17 08:14:55;;;;;;;;;;;17.80;99.90;;;;;;4590050;19;19923;-33
2022/06/17 08:16:25;;;;;;;;;;;17.80;99.90;;;;;;4590676;19;19911;-33
2022/06/17 08:17:56;;;;;;;;;;;17.80;99.90;;;;;;4590412;19;19927;-32
2022/06/17 08:19:28;;;;;;;;;;;17.80;99.90;;;;;;4590000;19;19919;-32
2022/06/17 08:20:59;;;;;;;;;;;17.80;99.90;;;;;;4591103;19;19915;-32
2022/06/17 08:22:33;;;;;;;;;;;17.70;99.90;;;;;;4591026;19;19936;-33
2022/06/17 08:24:05;;;;;;;;;;;17.80;99.90;;;;;;4589100;19;19942;-35
2022/06/17 08:25:36;;;;;;;;;;;17.80;99.90;;;;;;4590990;19;19919;-36
2022/06/17 08:27:07;;;;;;;;;;;17.80;99.90;;;;;;4590809;19;20475;-33
2022/06/17 08:28:38;;;;;;;;;;;17.90;99.90;;;;;;4591736;19;19919;-36
2022/06/17 08:30:09;;;;;;;;;;;17.90;99.90;;;;;;4591579;19;19923;-33
2022/06/17 08:31:40;;;;;;;;;;;18.00;99.90;;;;;;4591088;19;19919;-34
2022/06/17 08:33:12;;;;;;;;;;;18.00;99.90;;;;;;4590772;19;20261;-38
2022/06/17 08:34:42;;;;;;;;;;;17.90;99.90;;;;;;4590759;19;19915;-32
2022/06/17 08:36:14;;;;;;;;;;;17.90;99.90;;;;;;4590654;19;19919;-33
2022/06/17 08:37:46;;;;;;;;;;;17.90;99.90;;;;;;4588474;19;19918;-32
2022/06/17 08:39:17;;;;;;;;;;;17.90;99.90;;;;;;4590181;19;19992;-34
2022/06/17 08:40:54;;;;;;;;;;;17.90;99.90;;;;;;4591324;19;20288;-34
2022/06/17 08:42:59;;;;;;;;;;;17.90;99.90;;;;;;4590914;19;19922;-31
2022/06/17 08:44:50;;;;;;;;;;;18.00;99.90;;;;;;4589062;19;19926;-34
2022/06/17 08:46:21;;;;;;;;;;;18.10;99.90;;;;;;4590812;19;19958;-35
2022/06/17 08:48:07;;;;;;;;;;;18.00;99.90;;;;;;4593240;19;21451;-35
2022/06/17 08:49:57;;;;;;;;;;;18.10;99.90;;;;;;4593035;19;19970;-34
2022/06/17 08:51:31;;;;;;;;;;;18.10;99.90;;;;;;4593355;19;20408;-34
2022/06/17 08:53:03;;;;;;;;;;;18.10;99.90;;;;;;4592290;19;20275;-36
2022/06/17 08:54:34;;;;;;;;;;;18.20;99.90;;;;;;4590626;19;19923;-38
2022/06/17 08:56:11;;;;;;;;;;;18.10;99.90;;;;;;4592646;19;19915;-40
2022/06/17 08:57:46;;;;;;;;;;;18.20;99.90;;;;;;4592142;19;19915;-37
2022/06/17 08:59:22;;;;;;;;;;;18.20;99.90;;;;;;4593303;19;19922;-34
2022/06/17 09:00:58;;;;;;;;;;;18.20;99.90;;;;;;4592817;19;19919;-34
2022/06/17 09:02:32;;;;;;;;;;;18.20;99.90;;;;;;4592682;19;20407;-33
2022/06/17 09:04:25;;;;;;;;;;;18.20;99.90;;;;;;4592695;19;20326;-36
2022/06/17 09:05:56;;;;;;;;;;;18.20;99.90;;;;;;4592668;19;20330;-32
2022/06/17 09:07:31;;;;;;;;;;;18.30;99.90;;;;;;4592528;19;19935;-35